createdAt,value
2017-02-10T00:00:21.975Z,0
2017-02-10T00:01:30.074Z,0
2017-02-10T00:02:38.158Z,0
2017-02-10T00:03:46.248Z,0
2017-02-10T00:04:54.335Z,0
2017-02-10T00:06:02.445Z,0
2017-02-10T00:07:10.511Z,0
2017-02-10T00:08:18.604Z,0
2017-02-10T00:09:26.700Z,0
2017-02-10T00:10:34.792Z,0
2017-02-10T00:11:42.875Z,0
2017-02-10T00:12:50.974Z,0
2017-02-10T00:13:59.070Z,0
2017-02-10T00:15:07.163Z,0
2017-02-10T00:16:15.254Z,0
2017-02-10T00:17:23.339Z,0
2017-02-10T00:18:31.434Z,0
2017-02-10T00:19:39.520Z,0
2017-02-10T00:20:47.604Z,0
2017-02-10T00:21:55.697Z,0
2017-02-10T00:23:03.786Z,0
2017-02-10T00:24:11.876Z,0
2017-02-10T00:25:19.964Z,0
2017-02-10T00:26:28.049Z,0
2017-02-10T00:27:36.137Z,0
2017-02-10T00:28:44.224Z,0
2017-02-10T00:29:52.312Z,0
2017-02-10T00:31:00.396Z,0
2017-02-10T00:32:08.494Z,0
2017-02-10T00:33:16.585Z,0
2017-02-10T00:34:24.668Z,0
2017-02-10T00:35:32.751Z,0
2017-02-10T00:36:40.840Z,0
2017-02-10T00:37:48.925Z,0
2017-02-10T00:38:57.012Z,0
2017-02-10T00:40:05.111Z,0
2017-02-10T00:41:13.188Z,0
2017-02-10T00:42:21.277Z,0
2017-02-10T00:43:29.361Z,0
2017-02-10T00:44:37.536Z,0
2017-02-10T00:45:45.536Z,0
2017-02-10T00:46:53.628Z,0
2017-02-10T00:48:01.716Z,0
2017-02-10T00:49:09.801Z,0
2017-02-10T00:50:17.891Z,0
2017-02-10T00:51:25.978Z,0
2017-02-10T00:52:34.069Z,0
2017-02-10T00:53:42.158Z,0
2017-02-10T00:54:50.248Z,0
2017-02-10T00:55:58.337Z,0
2017-02-10T00:57:06.426Z,0
2017-02-10T00:58:14.512Z,0
2017-02-10T00:59:22.596Z,0
2017-02-10T01:00:30.689Z,0
2017-02-10T01:01:38.775Z,0
2017-02-10T01:02:46.860Z,0
2017-02-10T01:03:54.951Z,0
2017-02-10T01:05:03.048Z,0
2017-02-10T01:06:11.134Z,0
2017-02-10T01:07:19.208Z,0
2017-02-10T01:08:27.301Z,0
2017-02-10T01:09:35.398Z,0
2017-02-10T01:10:43.483Z,0
2017-02-10T01:11:51.572Z,0
2017-02-10T01:12:59.670Z,0
2017-02-10T01:14:07.749Z,0
2017-02-10T01:15:15.842Z,0
2017-02-10T01:16:23.935Z,0
2017-02-10T01:17:32.022Z,0
2017-02-10T01:18:40.107Z,0
2017-02-10T01:19:48.202Z,0
2017-02-10T01:20:56.294Z,0
2017-02-10T01:22:04.380Z,0
2017-02-10T01:23:12.463Z,0
2017-02-10T01:24:20.589Z,0
2017-02-10T01:25:28.646Z,0
2017-02-10T01:26:36.739Z,0
2017-02-10T01:27:44.827Z,0
2017-02-10T01:28:52.916Z,0
2017-02-10T01:30:00.998Z,0
2017-02-10T01:31:09.093Z,0
2017-02-10T01:32:17.185Z,0
2017-02-10T01:33:25.267Z,0
2017-02-10T01:34:33.411Z,0
2017-02-10T01:35:41.443Z,0
2017-02-10T01:36:49.530Z,4
2017-02-10T01:37:57.613Z,0
2017-02-10T01:39:05.704Z,0
2017-02-10T01:40:13.789Z,0
2017-02-10T01:41:21.870Z,0
2017-02-10T01:42:29.959Z,0
2017-02-10T01:43:38.054Z,0
2017-02-10T01:44:46.143Z,0
2017-02-10T01:45:54.229Z,0
2017-02-10T01:47:02.320Z,0
2017-02-10T01:48:10.401Z,0
2017-02-10T01:49:18.492Z,0
2017-02-10T01:50:26.573Z,0
2017-02-10T01:51:34.664Z,0
2017-02-10T01:52:42.752Z,0
2017-02-10T01:53:50.834Z,0
2017-02-10T01:54:58.923Z,0
2017-02-10T01:56:07.010Z,0
2017-02-10T01:57:15.098Z,0
2017-02-10T01:58:23.183Z,0
2017-02-10T01:59:31.272Z,0
2017-02-10T02:00:39.368Z,0
2017-02-10T02:01:47.451Z,0
2017-02-10T02:02:55.540Z,0
2017-02-10T02:04:03.633Z,0
2017-02-10T02:05:11.722Z,0
2017-02-10T02:06:19.802Z,0
2017-02-10T02:07:27.893Z,0
2017-02-10T02:08:35.983Z,0
2017-02-10T02:09:44.074Z,0
2017-02-10T02:10:52.156Z,0
2017-02-10T02:12:00.244Z,0
2017-02-10T02:13:08.327Z,0
2017-02-10T02:14:16.425Z,0
2017-02-10T02:15:24.512Z,0
2017-02-10T02:16:32.594Z,0
2017-02-10T02:17:40.682Z,0
2017-02-10T02:18:48.772Z,0
2017-02-10T02:19:56.862Z,0
2017-02-10T02:21:04.950Z,0
2017-02-10T02:22:13.032Z,0
2017-02-10T02:23:21.123Z,0
2017-02-10T02:24:29.209Z,0
2017-02-10T02:25:37.294Z,0
2017-02-10T02:26:45.382Z,0
2017-02-10T02:27:53.469Z,0
2017-02-10T02:29:01.552Z,0
2017-02-10T02:30:09.640Z,0
2017-02-10T02:31:17.732Z,0
2017-02-10T02:32:25.818Z,0
2017-02-10T02:33:33.900Z,0
2017-02-10T02:34:41.993Z,0
2017-02-10T02:35:50.081Z,0
2017-02-10T02:36:58.165Z,0
2017-02-10T02:38:06.250Z,0
2017-02-10T02:39:14.341Z,0
2017-02-10T02:40:22.422Z,0
2017-02-10T02:41:30.520Z,0
2017-02-10T02:42:38.607Z,0
2017-02-10T02:43:46.695Z,0
2017-02-10T02:44:54.782Z,0
2017-02-10T02:46:02.868Z,0
2017-02-10T02:47:11.172Z,0
2017-02-10T02:48:19.039Z,0
2017-02-10T02:49:27.535Z,0
2017-02-10T02:50:35.214Z,0
2017-02-10T02:51:43.304Z,0
2017-02-10T02:52:51.391Z,0
2017-02-10T02:53:59.494Z,0
2017-02-10T02:55:07.571Z,0
2017-02-10T02:56:15.658Z,0
2017-02-10T02:57:23.741Z,0
2017-02-10T02:58:31.833Z,0
2017-02-10T02:59:39.925Z,0
2017-02-10T03:00:48.008Z,0
2017-02-10T03:01:56.099Z,0
2017-02-10T03:03:04.191Z,0
2017-02-10T03:04:12.272Z,0
2017-02-10T03:05:20.358Z,0
2017-02-10T03:06:28.453Z,0
2017-02-10T03:07:36.540Z,0
2017-02-10T03:08:44.630Z,0
2017-02-10T03:09:52.725Z,0
2017-02-10T03:11:00.816Z,0
2017-02-10T03:12:08.908Z,0
2017-02-10T03:13:16.991Z,0
2017-02-10T03:14:25.082Z,0
2017-02-10T03:15:33.165Z,0
2017-02-10T03:16:41.252Z,0
2017-02-10T03:17:49.340Z,0
2017-02-10T03:18:57.429Z,0
2017-02-10T03:20:05.516Z,0
2017-02-10T03:21:13.599Z,0
2017-02-10T03:22:21.690Z,0
2017-02-10T03:23:29.779Z,0
2017-02-10T03:24:37.861Z,0
2017-02-10T03:25:45.951Z,0
2017-02-10T03:26:54.039Z,0
2017-02-10T03:28:02.123Z,0
2017-02-10T03:29:10.210Z,0
2017-02-10T03:30:18.337Z,0
2017-02-10T03:31:26.392Z,0
2017-02-10T03:32:34.476Z,0
2017-02-10T03:33:42.566Z,0
2017-02-10T03:34:50.651Z,0
2017-02-10T03:35:59.370Z,0
2017-02-10T03:37:06.822Z,0
2017-02-10T03:38:14.912Z,0
2017-02-10T03:39:22.992Z,0
2017-02-10T03:40:31.077Z,0
2017-02-10T03:41:39.171Z,0
2017-02-10T03:42:47.258Z,0
2017-02-10T03:43:55.341Z,0
2017-02-10T03:45:03.432Z,0
2017-02-10T03:46:11.522Z,0
2017-02-10T03:47:19.664Z,0
2017-02-10T03:48:27.693Z,0
2017-02-10T03:49:35.783Z,0
2017-02-10T03:50:43.869Z,0
2017-02-10T03:51:51.953Z,0
2017-02-10T03:53:00.050Z,0
2017-02-10T03:54:08.161Z,0
2017-02-10T03:55:16.221Z,0
2017-02-10T03:56:24.305Z,0
2017-02-10T03:57:32.400Z,0
2017-02-10T03:58:40.493Z,0
2017-02-10T03:59:48.573Z,0
2017-02-10T04:00:56.661Z,0
2017-02-10T04:02:04.746Z,0
2017-02-10T04:03:12.836Z,0
2017-02-10T04:04:20.935Z,0
2017-02-10T04:05:29.016Z,0
2017-02-10T04:06:37.108Z,0
2017-02-10T04:07:45.191Z,0
2017-02-10T04:08:53.281Z,0
2017-02-10T04:10:01.366Z,0
2017-02-10T04:11:09.465Z,0
2017-02-10T04:12:17.548Z,0
2017-02-10T04:13:25.643Z,0
2017-02-10T04:14:33.729Z,0
2017-02-10T04:15:41.814Z,0
2017-02-10T04:16:49.904Z,0
2017-02-10T04:17:57.989Z,0
2017-02-10T04:19:06.072Z,0
2017-02-10T04:20:14.185Z,0
2017-02-10T04:21:22.259Z,0
2017-02-10T04:22:30.344Z,0
2017-02-10T04:23:38.428Z,0
2017-02-10T04:24:46.523Z,0
2017-02-10T04:25:54.617Z,0
2017-02-10T04:27:02.701Z,0
2017-02-10T04:28:10.792Z,0
2017-02-10T04:29:18.883Z,0
2017-02-10T04:30:26.970Z,0
2017-02-10T04:31:35.052Z,0
2017-02-10T04:32:43.143Z,0
2017-02-10T04:33:51.231Z,0
2017-02-10T04:34:59.327Z,0
2017-02-10T04:36:07.401Z,0
2017-02-10T04:37:15.494Z,0
2017-02-10T04:38:23.580Z,0
2017-02-10T04:39:31.664Z,0
2017-02-10T04:40:39.752Z,0
2017-02-10T04:41:47.836Z,0
2017-02-10T04:42:55.918Z,0
2017-02-10T04:44:04.011Z,0
2017-02-10T04:45:12.103Z,0
2017-02-10T04:46:20.190Z,0
2017-02-10T04:47:28.270Z,0
2017-02-10T04:48:36.364Z,0
2017-02-10T04:49:44.452Z,0
2017-02-10T04:50:52.530Z,0
2017-02-10T04:52:00.626Z,0
2017-02-10T04:53:08.708Z,0
2017-02-10T04:54:16.789Z,0
2017-02-10T04:55:24.877Z,0
2017-02-10T04:56:32.970Z,0
2017-02-10T04:57:41.054Z,0
2017-02-10T04:58:49.141Z,0
2017-02-10T04:59:57.227Z,0
2017-02-10T05:01:05.319Z,0
2017-02-10T05:02:13.406Z,0
2017-02-10T05:03:21.489Z,0
2017-02-10T05:04:29.577Z,0
2017-02-10T05:05:37.666Z,0
2017-02-10T05:06:45.750Z,0
2017-02-10T05:07:53.844Z,0
2017-02-10T05:09:01.933Z,0
2017-02-10T05:10:10.017Z,0
2017-02-10T05:11:18.102Z,0
2017-02-10T05:12:26.194Z,0
2017-02-10T05:13:34.282Z,0
2017-02-10T05:14:42.368Z,0
2017-02-10T05:15:50.457Z,0
2017-02-10T05:16:58.545Z,0
2017-02-10T05:18:06.631Z,0
2017-02-10T05:19:14.725Z,0
2017-02-10T05:20:22.809Z,0
2017-02-10T05:21:30.898Z,0
2017-02-10T05:22:38.985Z,0
2017-02-10T05:23:47.076Z,0
2017-02-10T05:24:55.170Z,0
2017-02-10T05:26:03.259Z,0
2017-02-10T05:27:11.349Z,0
2017-02-10T05:28:19.438Z,0
2017-02-10T05:29:27.527Z,0
2017-02-10T05:30:35.614Z,0
2017-02-10T05:31:43.710Z,0
2017-02-10T05:32:51.797Z,0
2017-02-10T05:33:59.883Z,0
2017-02-10T05:35:07.966Z,0
2017-02-10T05:36:16.063Z,0
2017-02-10T05:37:24.151Z,0
2017-02-10T05:38:32.234Z,0
2017-02-10T05:39:40.328Z,0
2017-02-10T05:40:48.413Z,0
2017-02-10T05:41:56.498Z,0
2017-02-10T05:43:04.586Z,0
2017-02-10T05:44:12.675Z,0
2017-02-10T05:45:20.761Z,0
2017-02-10T05:46:28.846Z,0
2017-02-10T05:47:36.935Z,0
2017-02-10T05:48:45.022Z,0
2017-02-10T05:49:53.103Z,0
2017-02-10T05:51:01.191Z,0
2017-02-10T05:52:09.289Z,0
2017-02-10T05:53:17.377Z,0
2017-02-10T05:54:25.456Z,0
2017-02-10T05:55:33.545Z,0
2017-02-10T05:56:41.637Z,0
2017-02-10T05:57:49.725Z,0
2017-02-10T05:58:57.815Z,0
2017-02-10T06:00:05.900Z,0
2017-02-10T06:01:13.987Z,0
2017-02-10T06:02:22.070Z,0
2017-02-10T06:03:30.160Z,0
2017-02-10T06:04:38.245Z,0
2017-02-10T06:05:46.327Z,0
2017-02-10T06:06:54.417Z,0
2017-02-10T06:08:02.508Z,0
2017-02-10T06:09:10.592Z,0
2017-02-10T06:10:18.676Z,0
2017-02-10T06:11:26.764Z,0
2017-02-10T06:12:34.852Z,0
2017-02-10T06:13:42.937Z,0
2017-02-10T06:14:51.031Z,0
2017-02-10T06:15:59.116Z,0
2017-02-10T06:17:07.207Z,0
2017-02-10T06:18:15.289Z,0
2017-02-10T06:19:23.378Z,0
2017-02-10T06:20:31.488Z,0
2017-02-10T06:21:39.553Z,0
2017-02-10T06:22:47.641Z,0
2017-02-10T06:23:55.725Z,0
2017-02-10T06:25:03.819Z,0
2017-02-10T06:26:11.905Z,0
2017-02-10T06:27:19.990Z,0
2017-02-10T06:28:28.074Z,0
2017-02-10T06:29:36.160Z,0
2017-02-10T06:30:44.252Z,0
2017-02-10T06:31:52.339Z,0
2017-02-10T06:33:00.428Z,0
2017-02-10T06:34:08.508Z,0
2017-02-10T06:35:16.605Z,0
2017-02-10T06:36:24.689Z,0
2017-02-10T06:37:32.777Z,0
2017-02-10T06:38:40.865Z,0
2017-02-10T06:39:48.953Z,0
2017-02-10T06:40:57.036Z,0
2017-02-10T06:42:05.121Z,0
2017-02-10T06:43:13.219Z,0
2017-02-10T06:44:21.295Z,0
2017-02-10T06:45:29.383Z,0
2017-02-10T06:46:37.473Z,0
2017-02-10T06:47:45.558Z,0
2017-02-10T06:48:53.644Z,4
2017-02-10T06:50:01.778Z,4
2017-02-10T06:51:09.820Z,4
2017-02-10T06:52:17.904Z,4
2017-02-10T06:53:25.989Z,0
2017-02-10T06:54:34.082Z,0
2017-02-10T06:55:42.170Z,0
2017-02-10T06:56:50.256Z,0
2017-02-10T06:57:58.337Z,0
2017-02-10T06:59:06.432Z,4
2017-02-10T07:00:14.516Z,4
2017-02-10T07:01:22.599Z,4
2017-02-10T07:02:30.688Z,4
2017-02-10T07:03:38.787Z,0
2017-02-10T07:04:46.856Z,4
2017-02-10T07:05:54.946Z,4
2017-02-10T07:07:03.108Z,4
2017-02-10T07:08:11.120Z,0
2017-02-10T07:09:19.209Z,0
2017-02-10T07:10:27.289Z,0
2017-02-10T07:11:35.374Z,0
2017-02-10T07:12:43.461Z,0
2017-02-10T07:13:51.548Z,0
2017-02-10T07:14:59.634Z,0
2017-02-10T07:16:07.719Z,0
2017-02-10T07:17:15.806Z,0
2017-02-10T07:18:23.896Z,0
2017-02-10T07:19:31.981Z,4
2017-02-10T07:20:40.068Z,4
2017-02-10T07:21:48.163Z,4
2017-02-10T07:22:56.454Z,4
2017-02-10T07:24:04.391Z,4
2017-02-10T07:25:12.421Z,4
2017-02-10T07:26:20.509Z,4
2017-02-10T07:27:28.597Z,4
2017-02-10T07:28:36.676Z,8
2017-02-10T07:29:44.766Z,4
2017-02-10T07:30:52.855Z,4
2017-02-10T07:32:00.940Z,4
2017-02-10T07:33:09.026Z,4
2017-02-10T07:34:17.123Z,4
2017-02-10T07:35:25.208Z,4
2017-02-10T07:36:33.292Z,4
2017-02-10T07:37:41.386Z,8
2017-02-10T07:38:49.474Z,8
2017-02-10T07:39:57.553Z,8
2017-02-10T07:41:05.739Z,8
2017-02-10T07:42:13.735Z,4
2017-02-10T07:43:21.822Z,4
2017-02-10T07:44:29.907Z,8
2017-02-10T07:45:37.998Z,4
2017-02-10T07:46:46.088Z,8
2017-02-10T07:47:54.177Z,8
2017-02-10T07:49:02.256Z,4
2017-02-10T07:50:10.353Z,8
2017-02-10T07:51:18.438Z,8
2017-02-10T07:52:26.532Z,8
2017-02-10T07:53:34.617Z,12
2017-02-10T07:54:42.698Z,12
2017-02-10T07:55:50.795Z,8
2017-02-10T07:56:58.892Z,8
2017-02-10T07:58:06.986Z,12
2017-02-10T07:59:15.074Z,12
2017-02-10T08:00:23.152Z,8
2017-02-10T08:01:31.244Z,12
2017-02-10T08:02:39.338Z,8
2017-02-10T08:03:47.420Z,8
2017-02-10T08:04:55.504Z,8
2017-02-10T08:06:03.601Z,8
2017-02-10T08:07:11.691Z,8
2017-02-10T08:08:19.775Z,12
2017-02-10T08:09:27.866Z,12
2017-02-10T08:10:35.954Z,12
2017-02-10T08:11:44.048Z,8
2017-02-10T08:12:52.134Z,8
2017-02-10T08:14:00.224Z,8
2017-02-10T08:15:08.324Z,12
2017-02-10T08:16:16.413Z,8
2017-02-10T08:17:24.502Z,8
2017-02-10T08:18:32.594Z,8
2017-02-10T08:19:40.678Z,12
2017-02-10T08:20:48.778Z,12
2017-02-10T08:21:56.870Z,12
2017-02-10T08:23:04.955Z,12
2017-02-10T08:24:13.037Z,12
2017-02-10T08:25:21.127Z,12
2017-02-10T08:26:29.227Z,12
2017-02-10T08:27:37.306Z,12
2017-02-10T08:28:45.401Z,12
2017-02-10T08:29:53.485Z,16
2017-02-10T08:31:01.571Z,16
2017-02-10T08:32:09.654Z,16
2017-02-10T08:33:17.746Z,16
2017-02-10T08:34:25.835Z,16
2017-02-10T08:35:33.922Z,16
2017-02-10T08:36:42.015Z,16
2017-02-10T08:37:50.106Z,16
2017-02-10T08:38:58.189Z,16
2017-02-10T08:40:06.764Z,12
2017-02-10T08:41:14.374Z,16
2017-02-10T08:42:22.456Z,16
2017-02-10T08:43:30.543Z,16
2017-02-10T08:44:38.630Z,20
2017-02-10T08:45:46.716Z,20
2017-02-10T08:46:54.805Z,20
2017-02-10T08:48:02.887Z,20
2017-02-10T08:49:10.976Z,24
2017-02-10T08:50:19.060Z,20
2017-02-10T08:51:27.142Z,20
2017-02-10T08:52:35.233Z,20
2017-02-10T08:53:43.318Z,20
2017-02-10T08:54:51.401Z,20
2017-02-10T08:55:59.497Z,20
2017-02-10T08:57:07.581Z,16
2017-02-10T08:58:15.672Z,16
2017-02-10T08:59:23.765Z,16
2017-02-10T09:00:31.849Z,16
2017-02-10T09:01:39.938Z,16
2017-02-10T09:02:48.018Z,16
2017-02-10T09:03:56.107Z,16
2017-02-10T09:05:04.197Z,16
2017-02-10T09:06:12.316Z,12
2017-02-10T09:07:20.365Z,16
2017-02-10T09:08:28.455Z,16
2017-02-10T09:09:36.544Z,16
2017-02-10T09:10:44.631Z,16
2017-02-10T09:11:52.714Z,16
2017-02-10T09:13:00.804Z,16
2017-02-10T09:14:08.891Z,16
2017-02-10T09:15:16.968Z,16
2017-02-10T09:16:25.059Z,16
2017-02-10T09:17:33.146Z,16
2017-02-10T09:18:41.227Z,16
2017-02-10T09:19:49.315Z,16
2017-02-10T09:20:57.406Z,12
2017-02-10T09:22:05.492Z,16
2017-02-10T09:23:13.573Z,16
2017-02-10T09:24:21.663Z,12
2017-02-10T09:25:29.746Z,16
2017-02-10T09:26:37.831Z,16
2017-02-10T09:27:45.918Z,16
2017-02-10T09:28:54.002Z,12
2017-02-10T09:30:02.089Z,16
2017-02-10T09:31:10.175Z,16
2017-02-10T09:32:18.265Z,16
2017-02-10T09:33:26.352Z,16
2017-02-10T09:34:34.433Z,20
2017-02-10T09:35:42.520Z,16
2017-02-10T09:36:50.605Z,20
2017-02-10T09:37:58.688Z,20
2017-02-10T09:39:06.772Z,20
2017-02-10T09:40:14.861Z,16
2017-02-10T09:41:22.943Z,16
2017-02-10T09:42:31.034Z,16
2017-02-10T09:43:39.124Z,16
2017-02-10T09:44:47.473Z,16
2017-02-10T09:45:55.292Z,16
2017-02-10T09:47:03.380Z,20
2017-02-10T09:48:11.496Z,16
2017-02-10T09:49:19.568Z,20
2017-02-10T09:50:27.647Z,20
2017-02-10T09:51:35.736Z,16
2017-02-10T09:52:43.915Z,20
2017-02-10T09:53:51.905Z,20
2017-02-10T09:54:59.989Z,16
2017-02-10T09:56:08.077Z,20
2017-02-10T09:57:16.161Z,20
2017-02-10T09:58:24.895Z,20
2017-02-10T09:59:32.330Z,20
2017-02-10T10:00:40.417Z,20
2017-02-10T10:01:48.501Z,24
2017-02-10T10:02:56.964Z,24
2017-02-10T10:04:04.673Z,20
2017-02-10T10:05:12.767Z,20
2017-02-10T10:06:20.848Z,24
2017-02-10T10:07:28.935Z,24
2017-02-10T10:08:37.019Z,20
2017-02-10T10:09:45.159Z,20
2017-02-10T10:10:53.188Z,20
2017-02-10T10:12:01.276Z,24
2017-02-10T10:13:09.363Z,20
2017-02-10T10:14:17.445Z,20
2017-02-10T10:15:25.538Z,24
2017-02-10T10:16:33.625Z,24
2017-02-10T10:17:42.009Z,28
2017-02-10T10:18:49.789Z,24
2017-02-10T10:19:57.881Z,24
2017-02-10T10:21:05.965Z,28
2017-02-10T10:22:14.054Z,24
2017-02-10T10:23:22.145Z,28
2017-02-10T10:24:30.794Z,28
2017-02-10T10:25:38.317Z,28
2017-02-10T10:26:46.441Z,28
2017-02-10T10:27:54.980Z,28
2017-02-10T10:29:02.628Z,28
2017-02-10T10:30:10.658Z,28
2017-02-10T10:31:19.334Z,24
2017-02-10T10:32:26.846Z,28
2017-02-10T10:33:34.930Z,28
2017-02-10T10:34:43.021Z,28
2017-02-10T10:35:51.102Z,28
2017-02-10T10:36:59.189Z,32
2017-02-10T10:38:07.269Z,36
2017-02-10T10:39:15.358Z,40
2017-02-10T10:40:23.446Z,44
2017-02-10T10:41:31.749Z,44
2017-02-10T10:42:39.624Z,40
2017-02-10T10:43:47.713Z,36
2017-02-10T10:44:55.936Z,40
2017-02-10T10:46:03.877Z,48
2017-02-10T10:47:11.972Z,48
2017-02-10T10:48:20.056Z,36
2017-02-10T10:49:28.140Z,28
2017-02-10T10:50:36.521Z,32
2017-02-10T10:51:44.316Z,40
2017-02-10T10:52:52.400Z,48
2017-02-10T10:54:00.484Z,52
2017-02-10T10:55:08.748Z,48
2017-02-10T10:56:16.667Z,44
2017-02-10T10:57:24.748Z,44
2017-02-10T10:58:32.845Z,40
2017-02-10T10:59:40.934Z,36
2017-02-10T11:00:49.021Z,32
2017-02-10T11:01:57.100Z,28
2017-02-10T11:03:05.189Z,24
2017-02-10T11:04:13.269Z,24
2017-02-10T11:05:21.360Z,28
2017-02-10T11:06:29.459Z,28
2017-02-10T11:07:37.546Z,32
2017-02-10T11:08:45.632Z,32
2017-02-10T11:09:53.852Z,32
2017-02-10T11:11:02.082Z,44
2017-02-10T11:12:09.901Z,60
2017-02-10T11:13:17.984Z,60
2017-02-10T11:14:26.240Z,64
2017-02-10T11:15:34.164Z,60
2017-02-10T11:16:42.246Z,56
2017-02-10T11:17:50.336Z,64
2017-02-10T11:18:58.425Z,64
2017-02-10T11:20:06.540Z,52
2017-02-10T11:21:14.596Z,40
2017-02-10T11:22:22.691Z,52
2017-02-10T11:23:30.779Z,60
2017-02-10T11:24:38.865Z,60
2017-02-10T11:25:47.095Z,64
2017-02-10T11:26:55.039Z,64
2017-02-10T11:28:03.167Z,64
2017-02-10T11:29:11.651Z,64
2017-02-10T11:30:19.299Z,52
2017-02-10T11:31:27.387Z,36
2017-02-10T11:32:35.466Z,36
2017-02-10T11:33:43.557Z,36
2017-02-10T11:34:51.644Z,32
2017-02-10T11:35:59.733Z,28
2017-02-10T11:37:07.816Z,24
2017-02-10T11:38:15.905Z,24
2017-02-10T11:39:23.992Z,28
2017-02-10T11:40:32.076Z,28
2017-02-10T11:41:40.208Z,32
2017-02-10T11:42:48.254Z,36
2017-02-10T11:43:56.342Z,40
2017-02-10T11:45:04.423Z,36
2017-02-10T11:46:13.150Z,40
2017-02-10T11:47:20.604Z,40
2017-02-10T11:48:28.897Z,36
2017-02-10T11:49:36.778Z,36
2017-02-10T11:50:44.866Z,40
2017-02-10T11:51:52.953Z,36
2017-02-10T11:53:01.041Z,40
2017-02-10T11:54:09.129Z,40
2017-02-10T11:55:17.214Z,44
2017-02-10T11:56:25.319Z,44
2017-02-10T11:57:33.389Z,48
2017-02-10T11:58:41.475Z,48
2017-02-10T11:59:49.562Z,52
2017-02-10T12:00:57.648Z,56
2017-02-10T12:02:05.743Z,64
2017-02-10T12:03:13.825Z,68
2017-02-10T12:04:21.913Z,56
2017-02-10T12:05:30.003Z,56
2017-02-10T12:06:38.090Z,64
2017-02-10T12:07:47.678Z,48
2017-02-10T12:08:54.336Z,44
2017-02-10T12:10:02.361Z,40
2017-02-10T12:11:10.463Z,36
2017-02-10T12:12:18.538Z,32
2017-02-10T12:13:26.636Z,32
2017-02-10T12:14:34.831Z,36
2017-02-10T12:15:42.912Z,32
2017-02-10T12:16:51.103Z,36
2017-02-10T12:17:59.093Z,36
2017-02-10T12:19:07.082Z,36
2017-02-10T12:20:15.169Z,32
2017-02-10T12:21:23.357Z,36
2017-02-10T12:22:31.459Z,36
2017-02-10T12:23:39.530Z,32
2017-02-10T12:24:47.519Z,32
2017-02-10T12:25:55.615Z,32
2017-02-10T12:27:03.702Z,28
2017-02-10T12:28:11.807Z,28
2017-02-10T12:29:19.875Z,24
2017-02-10T12:30:27.961Z,24
2017-02-10T12:31:36.045Z,24
2017-02-10T12:32:44.132Z,24
2017-02-10T12:33:52.223Z,24
2017-02-10T12:35:00.313Z,28
2017-02-10T12:36:08.401Z,28
2017-02-10T12:37:16.487Z,32
2017-02-10T12:38:24.577Z,36
2017-02-10T12:39:32.661Z,32
2017-02-10T12:40:40.751Z,36
2017-02-10T12:41:48.841Z,32
2017-02-10T12:42:56.928Z,32
2017-02-10T12:44:05.014Z,32
2017-02-10T12:45:13.105Z,32
2017-02-10T12:46:21.197Z,32
2017-02-10T12:47:29.287Z,36
2017-02-10T12:48:37.375Z,32
2017-02-10T12:49:45.462Z,36
2017-02-10T12:50:53.555Z,32
2017-02-10T12:52:01.644Z,32
2017-02-10T12:53:09.761Z,36
2017-02-10T12:54:17.821Z,36
2017-02-10T12:55:25.912Z,36
2017-02-10T12:56:34.007Z,36
2017-02-10T12:57:42.094Z,36
2017-02-10T12:58:50.183Z,36
2017-02-10T12:59:58.267Z,32
2017-02-10T13:01:06.360Z,28
2017-02-10T13:02:14.447Z,28
2017-02-10T13:03:22.532Z,28
2017-02-10T13:04:30.621Z,28
2017-02-10T13:05:38.724Z,28
2017-02-10T13:06:46.798Z,28
2017-02-10T13:07:54.886Z,28
2017-02-10T13:09:02.981Z,24
2017-02-10T13:10:11.068Z,24
2017-02-10T13:11:19.158Z,24
2017-02-10T13:12:27.268Z,24
2017-02-10T13:13:35.330Z,20
2017-02-10T13:14:43.418Z,20
2017-02-10T13:15:51.500Z,20
2017-02-10T13:16:59.594Z,20
2017-02-10T13:18:07.686Z,20
2017-02-10T13:19:15.783Z,20
2017-02-10T13:20:23.869Z,20
2017-02-10T13:21:31.974Z,20
2017-02-10T13:22:40.042Z,20
2017-02-10T13:23:48.127Z,16
2017-02-10T13:24:56.230Z,20
2017-02-10T13:26:04.315Z,16
2017-02-10T13:27:12.402Z,20
2017-02-10T13:28:20.495Z,16
2017-02-10T13:29:28.615Z,16
2017-02-10T13:30:36.672Z,16
2017-02-10T13:31:44.758Z,16
2017-02-10T13:32:52.849Z,16
2017-02-10T13:34:00.939Z,16
2017-02-10T13:35:09.028Z,16
2017-02-10T13:36:17.112Z,12
2017-02-10T13:37:25.200Z,12
2017-02-10T13:38:33.286Z,12
2017-02-10T13:39:41.375Z,16
2017-02-10T13:40:49.467Z,12
2017-02-10T13:41:57.550Z,12
2017-02-10T13:43:05.640Z,12
2017-02-10T13:44:13.735Z,12
2017-02-10T13:45:21.824Z,12
2017-02-10T13:46:29.915Z,16
2017-02-10T13:47:38.000Z,16
2017-02-10T13:48:46.091Z,16
2017-02-10T13:49:54.177Z,16
2017-02-10T13:51:02.272Z,12
2017-02-10T13:52:10.370Z,12
2017-02-10T13:53:18.454Z,12
2017-02-10T13:54:26.536Z,12
2017-02-10T13:55:34.639Z,16
2017-02-10T13:56:42.729Z,12
2017-02-10T13:57:50.823Z,12
2017-02-10T13:58:58.907Z,12
2017-02-10T14:00:06.998Z,12
2017-02-10T14:01:15.088Z,12
2017-02-10T14:02:23.179Z,12
2017-02-10T14:03:31.263Z,12
2017-02-10T14:04:39.356Z,12
2017-02-10T14:05:47.442Z,12
2017-02-10T14:06:55.533Z,12
2017-02-10T14:08:03.623Z,12
2017-02-10T14:09:11.714Z,8
2017-02-10T14:10:19.800Z,12
2017-02-10T14:11:27.894Z,12
2017-02-10T14:12:35.979Z,12
2017-02-10T14:13:44.072Z,12
2017-02-10T14:14:52.161Z,8
2017-02-10T14:16:00.253Z,8
2017-02-10T14:17:08.339Z,8
2017-02-10T14:18:16.427Z,8
2017-02-10T14:19:24.525Z,8
2017-02-10T14:20:32.610Z,8
2017-02-10T14:21:40.696Z,8
2017-02-10T14:22:48.780Z,12
2017-02-10T14:23:56.871Z,8
2017-02-10T14:25:04.960Z,8
2017-02-10T14:26:13.048Z,8
2017-02-10T14:27:21.142Z,12
2017-02-10T14:28:29.231Z,8
2017-02-10T14:29:37.314Z,8
2017-02-10T14:30:45.405Z,8
2017-02-10T14:31:53.493Z,8
2017-02-10T14:33:01.637Z,8
2017-02-10T14:34:09.667Z,8
2017-02-10T14:35:17.766Z,8
2017-02-10T14:36:25.853Z,8
2017-02-10T14:37:33.939Z,8
2017-02-10T14:38:42.030Z,8
2017-02-10T14:39:50.120Z,8
2017-02-10T14:40:58.204Z,12
2017-02-10T14:42:06.291Z,8
2017-02-10T14:43:14.381Z,8
2017-02-10T14:44:22.476Z,8
2017-02-10T14:45:30.566Z,8
2017-02-10T14:46:38.649Z,4
2017-02-10T14:47:46.740Z,8
2017-02-10T14:48:54.826Z,8
2017-02-10T14:50:02.911Z,8
2017-02-10T14:51:11.002Z,8
2017-02-10T14:52:19.092Z,8
2017-02-10T14:53:27.176Z,8
2017-02-10T14:54:35.264Z,4
2017-02-10T14:55:43.357Z,4
2017-02-10T14:56:51.443Z,4
2017-02-10T14:57:59.532Z,4
2017-02-10T14:59:07.618Z,8
2017-02-10T15:00:15.710Z,8
2017-02-10T15:01:23.802Z,8
2017-02-10T15:02:31.888Z,8
2017-02-10T15:03:39.976Z,8
2017-02-10T15:04:48.063Z,4
2017-02-10T15:05:56.158Z,4
2017-02-10T15:07:04.246Z,4
2017-02-10T15:08:12.336Z,4
2017-02-10T15:09:20.418Z,4
2017-02-10T15:10:28.514Z,4
2017-02-10T15:11:36.614Z,4
2017-02-10T15:12:44.702Z,4
2017-02-10T15:13:52.786Z,4
2017-02-10T15:15:00.876Z,8
2017-02-10T15:16:08.971Z,4
2017-02-10T15:17:17.063Z,4
2017-02-10T15:18:25.152Z,4
2017-02-10T15:19:33.241Z,4
2017-02-10T15:20:41.327Z,4
2017-02-10T15:21:49.411Z,4
2017-02-10T15:22:57.503Z,4
2017-02-10T15:24:05.587Z,4
2017-02-10T15:25:13.675Z,4
2017-02-10T15:26:21.766Z,4
2017-02-10T15:27:29.856Z,4
2017-02-10T15:28:37.938Z,4
2017-02-10T15:29:46.026Z,4
2017-02-10T15:30:54.123Z,4
2017-02-10T15:32:02.206Z,4
2017-02-10T15:33:10.289Z,4
2017-02-10T15:34:18.381Z,4
2017-02-10T15:35:26.476Z,4
2017-02-10T15:36:34.557Z,4
2017-02-10T15:37:42.644Z,4
2017-02-10T15:38:50.735Z,4
2017-02-10T15:39:58.821Z,4
2017-02-10T15:41:06.905Z,4
2017-02-10T15:42:14.995Z,0
2017-02-10T15:43:23.085Z,0
2017-02-10T15:44:31.168Z,4
2017-02-10T15:45:39.257Z,4
2017-02-10T15:46:47.354Z,4
2017-02-10T15:47:55.440Z,4
2017-02-10T15:49:03.530Z,0
2017-02-10T15:50:11.622Z,4
2017-02-10T15:51:19.706Z,4
2017-02-10T15:52:27.789Z,4
2017-02-10T15:53:35.888Z,4
2017-02-10T15:54:43.990Z,4
2017-02-10T15:55:52.078Z,4
2017-02-10T15:57:00.165Z,4
2017-02-10T15:58:08.257Z,4
2017-02-10T15:59:16.349Z,4
2017-02-10T16:00:24.434Z,4
2017-02-10T16:01:32.518Z,4
2017-02-10T16:02:40.614Z,4
2017-02-10T16:03:48.700Z,4
2017-02-10T16:04:56.788Z,4
2017-02-10T16:06:04.877Z,4
2017-02-10T16:07:12.964Z,4
2017-02-10T16:08:21.047Z,4
2017-02-10T16:09:29.140Z,4
2017-02-10T16:10:37.251Z,4
2017-02-10T16:11:45.327Z,4
2017-02-10T16:12:53.413Z,4
2017-02-10T16:14:01.502Z,0
2017-02-10T16:15:09.668Z,0
2017-02-10T16:16:17.682Z,4
2017-02-10T16:17:25.774Z,4
2017-02-10T16:18:33.860Z,4
2017-02-10T16:19:41.941Z,4
2017-02-10T16:20:50.031Z,4
2017-02-10T16:21:58.124Z,4
2017-02-10T16:23:06.212Z,4
2017-02-10T16:24:14.298Z,4
2017-02-10T16:25:22.386Z,0
2017-02-10T16:26:30.488Z,0
2017-02-10T16:27:38.565Z,4
2017-02-10T16:28:46.649Z,0
2017-02-10T16:29:54.747Z,4
2017-02-10T16:31:02.837Z,4
2017-02-10T16:32:10.964Z,0
2017-02-10T16:33:19.011Z,0